Time;durP1;ratioP1;P1;durP2;ratioP2;P2;SDS_P1;SDS_P2;PMS_P1;PMS_P2;Temp;Humidity;BMP_temperature;BMP_pressure;BME280_temperature;BME280_humidity;BME280_pressure;Samples;Min_cycle;Max_cycle;Signal;HPM_P1;HPM_P2
2022/01/29 00:02:19;;;;;;;75.90;30.45;;;;;;;5.21;100.00;102879.09;5017879;28;20075;-69
2022/01/29 00:04:45;;;;;;;69.90;26.15;;;;;;;5.17;100.00;102867.66;5020423;28;20028;-69
2022/01/29 00:07:11;;;;;;;66.93;23.70;;;;;;;5.27;100.00;102847.00;4998747;28;20029;-70
2022/01/29 00:09:37;;;;;;;84.72;32.38;;;;;;;5.30;100.00;102860.25;5030215;28;20032;-68
2022/01/29 00:12:03;;;;;;;67.70;27.70;;;;;;;5.32;100.00;102857.53;5000002;28;20417;-70
2022/01/29 00:14:28;;;;;;;70.15;25.85;;;;;;;5.25;100.00;102843.50;5031927;28;20033;-70
2022/01/29 00:16:54;;;;;;;83.65;32.55;;;;;;;5.37;100.00;102837.00;5032017;28;20033;-68
2022/01/29 00:19:19;;;;;;;88.40;38.92;;;;;;;5.28;100.00;102848.75;5018638;28;20037;-69
2022/01/29 00:21:44;;;;;;;75.05;29.73;;;;;;;5.30;100.00;102844.28;5018048;28;20460;-68
2022/01/29 00:24:10;;;;;;;83.07;34.60;;;;;;;5.28;100.00;102830.13;5018423;28;20076;-68
2022/01/29 00:26:35;;;;;;;67.43;26.42;;;;;;;5.24;100.00;102832.00;5010768;28;20485;-70
2022/01/29 00:29:08;;;;;;;76.78;26.85;;;;;;;5.16;100.00;102835.75;5021063;28;20116;-70
2022/01/29 00:31:33;;;;;;;89.93;34.97;;;;;;;5.31;100.00;102818.50;4999480;28;20041;-70
2022/01/29 00:33:58;;;;;;;69.20;24.85;;;;;;;5.20;100.00;102813.44;5021221;28;20071;-70
2022/01/29 00:36:23;;;;;;;73.93;26.27;;;;;;;5.23;100.00;102810.69;5017900;28;20055;-70
2022/01/29 00:38:49;;;;;;;83.78;29.48;;;;;;;4.98;100.00;102805.94;5018757;28;20176;-70
2022/01/29 00:41:14;;;;;;;89.38;35.90;;;;;;;5.09;100.00;102811.03;5010883;28;20462;-69
2022/01/29 00:43:39;;;;;;;93.65;36.70;;;;;;;5.17;100.00;102795.75;5020478;28;20058;-68
2022/01/29 00:46:05;;;;;;;93.70;38.85;;;;;;;5.21;100.00;102807.19;5016876;28;20057;-68
2022/01/29 00:48:30;;;;;;;99.38;35.97;;;;;;;5.20;100.00;102806.34;5018734;28;20062;-69
2022/01/29 00:50:57;;;;;;;88.45;30.58;;;;;;;5.14;100.00;102795.81;5017833;28;20041;-70
2022/01/29 00:53:22;;;;;;;94.32;33.78;;;;;;;5.10;100.00;102786.16;5019184;28;20055;-67
2022/01/29 00:55:48;;;;;;;94.90;37.17;;;;;;;5.01;100.00;102770.41;5004384;28;20575;-70
2022/01/29 00:58:13;;;;;;;98.05;41.20;;;;;;;5.06;100.00;102780.03;5034293;28;20505;-70
2022/01/29 01:00:39;;;;;;;88.60;28.65;;;;;;;4.97;100.00;102753.63;5002887;28;20049;-70
2022/01/29 01:03:04;;;;;;;95.95;39.90;;;;;;;5.07;100.00;102749.84;5024448;28;20061;-69
2022/01/29 01:05:29;;;;;;;84.65;30.35;;;;;;;5.01;100.00;102760.63;5015352;28;20163;-70
2022/01/29 01:07:55;;;;;;;107.65;44.53;;;;;;;5.15;100.00;102749.63;5025560;28;20515;-69
2022/01/29 01:10:20;;;;;;;103.35;41.42;;;;;;;5.17;100.00;102738.94;5036858;28;20038;-68
2022/01/29 01:12:45;;;;;;;118.35;49.00;;;;;;;5.29;100.00;102716.47;5019483;28;20113;-71
2022/01/29 01:15:11;;;;;;;101.10;33.45;;;;;;;5.19;100.00;102730.00;5017387;28;20061;-71
2022/01/29 01:17:36;;;;;;;106.57;40.72;;;;;;;5.17;100.00;102718.53;5005951;28;20033;-70
2022/01/29 01:20:03;;;;;;;110.85;45.72;;;;;;;5.21;100.00;102725.53;5036467;28;20493;-72
2022/01/29 01:22:28;;;;;;;93.63;34.28;;;;;;;5.20;100.00;102712.22;5005808;28;20080;-68
2022/01/29 01:24:54;;;;;;;95.18;40.67;;;;;;;5.08;100.00;102706.31;5019815;28;20033;-71
2022/01/29 01:27:20;;;;;;;108.15;38.05;;;;;;;5.14;100.00;102723.06;5015648;28;20029;-69
2022/01/29 01:29:45;;;;;;;110.05;38.92;;;;;;;5.23;100.00;102706.84;5017812;28;20033;-69
2022/01/29 01:32:11;;;;;;;110.45;40.90;;;;;;;5.10;100.00;102693.84;5018006;28;20029;-70
2022/01/29 01:34:41;;;;;;;93.35;32.00;;;;;;;5.16;100.00;102690.13;5031565;28;20526;-69
2022/01/29 01:37:10;;;;;;;84.53;32.58;;;;;;;5.15;100.00;102692.84;5020396;28;20443;-70
2022/01/29 01:39:38;;;;;;;95.18;30.52;;;;;;;5.12;100.00;102692.94;5018849;28;20063;-71
2022/01/29 01:42:05;;;;;;;103.30;34.38;;;;;;;5.05;100.00;102698.41;5008738;28;20650;-69
2022/01/29 01:44:46;;;;;;;112.82;33.78;;;;;;;5.23;100.00;102688.19;5020069;28;20236;-71
2022/01/29 01:47:13;;;;;;;102.65;36.80;;;;;;;4.98;100.00;102683.47;5041713;28;20033;-69
2022/01/29 01:49:38;;;;;;;134.82;42.92;;;;;;;5.14;100.00;102673.31;5036804;28;20386;-69
2022/01/29 01:52:07;;;;;;;133.70;49.00;;;;;;;5.20;100.00;102680.28;5018600;28;20052;-69
2022/01/29 01:54:33;;;;;;;112.57;39.00;;;;;;;5.07;100.00;102685.03;5006739;28;20481;-70
2022/01/29 01:56:59;;;;;;;110.00;37.63;;;;;;;5.02;100.00;102673.66;5018160;28;20037;-70
2022/01/29 01:59:24;;;;;;;88.80;29.10;;;;;;;5.09;100.00;102676.13;5019295;28;20091;-69
2022/01/29 02:01:49;;;;;;;125.93;41.65;;;;;;;5.15;100.00;102666.22;5020175;28;20041;-68
2022/01/29 02:04:15;;;;;;;128.35;42.10;;;;;;;5.23;100.00;102673.09;5036615;28;20565;-69
2022/01/29 02:06:40;;;;;;;88.85;30.27;;;;;;;5.07;100.00;102658.41;5037143;28;20029;-70
2022/01/29 02:09:05;;;;;;;109.78;36.60;;;;;;;5.18;100.00;102656.38;5034879;28;20124;-70
2022/01/29 02:11:31;;;;;;;104.68;33.05;;;;;;;5.11;100.00;102662.75;5022240;28;20171;-69
2022/01/29 02:13:58;;;;;;;110.18;38.95;;;;;;;5.22;100.00;102658.03;5002143;28;20032;-68
2022/01/29 02:16:24;;;;;;;108.32;34.58;;;;;;;5.18;100.00;102660.78;5039119;28;20120;-71
2022/01/29 02:18:49;;;;;;;117.82;38.28;;;;;;;5.15;100.00;102650.25;5033728;28;20386;-70
2022/01/29 02:21:16;;;;;;;133.55;53.92;;;;;;;5.26;100.00;102653.50;5034990;28;20044;-69
2022/01/29 02:23:41;;;;;;;130.98;46.67;;;;;;;5.14;100.00;102643.19;5015203;28;20352;-68
2022/01/29 02:26:06;;;;;;;109.85;34.05;;;;;;;5.11;100.00;102646.78;5027101;28;20033;-70
2022/01/29 02:28:32;;;;;;;117.43;40.40;;;;;;;5.20;100.00;102645.66;5003095;28;20030;-69
2022/01/29 02:31:03;;;;;;;120.90;42.53;;;;;;;5.17;100.00;102630.66;5033708;28;20390;-70
2022/01/29 02:33:31;;;;;;;102.57;33.17;;;;;;;5.04;100.00;102637.19;5016967;28;20108;-68
2022/01/29 02:35:57;;;;;;;137.70;45.92;;;;;;;5.24;100.00;102637.56;5035944;28;20030;-68
2022/01/29 02:38:24;;;;;;;99.18;36.88;;;;;;;5.09;100.00;102627.31;5018953;28;20025;-70
2022/01/29 02:40:53;;;;;;;127.13;44.70;;;;;;;5.09;100.00;102629.97;5004336;28;20033;-69
2022/01/29 02:43:36;;;;;;;110.72;36.13;;;;;;;5.00;100.00;102615.09;5017276;28;20029;-67
2022/01/29 02:46:18;;;;;;;130.55;41.53;;;;;;;5.14;100.00;102611.22;5019474;28;20021;-68
2022/01/29 02:48:45;;;;;;;130.50;42.47;;;;;;;5.01;100.00;102618.66;5020713;28;20041;-70
2022/01/29 02:51:10;;;;;;;157.48;45.55;;;;;;;5.04;100.00;102615.88;5002997;28;20435;-68
2022/01/29 02:53:36;;;;;;;134.63;40.45;;;;;;;5.03;100.00;102616.84;5017969;28;20056;-68
2022/01/29 02:56:01;;;;;;;130.00;40.88;;;;;;;5.02;100.00;102613.28;5019710;28;20064;-68
2022/01/29 02:58:27;;;;;;;146.57;47.70;;;;;;;5.18;100.00;102604.88;5022399;28;20056;-68
2022/01/29 03:00:52;;;;;;;140.15;39.40;;;;;;;4.93;100.00;102600.19;5022679;28;20029;-69
2022/01/29 03:03:18;;;;;;;92.72;26.17;;;;;;;4.92;100.00;102595.78;5018352;28;20505;-70
2022/01/29 03:05:43;;;;;;;132.18;40.13;;;;;;;4.99;100.00;102601.84;5036297;28;20539;-71
2022/01/29 03:08:08;;;;;;;122.38;39.45;;;;;;;4.99;100.00;102591.19;5020254;28;20033;-69
2022/01/29 03:10:34;;;;;;;142.70;43.45;;;;;;;5.10;100.00;102592.66;5018403;28;20029;-69
2022/01/29 03:12:59;;;;;;;124.15;40.47;;;;;;;4.99;100.00;102586.72;5018499;28;20370;-71
2022/01/29 03:15:24;;;;;;;125.20;37.58;;;;;;;4.93;100.00;102593.09;5018930;28;20083;-71
2022/01/29 03:17:50;;;;;;;89.55;29.17;;;;;;;4.95;100.00;102593.03;5019269;28;20136;-71
2022/01/29 03:20:15;;;;;;;99.10;31.65;;;;;;;4.94;100.00;102586.88;5015604;28;20838;-70
2022/01/29 03:22:41;;;;;;;121.68;37.33;;;;;;;5.08;100.00;102573.19;5033868;28;20346;-69
2022/01/29 03:25:06;;;;;;;114.18;34.00;;;;;;;5.12;100.00;102571.31;5001050;28;20108;-68
2022/01/29 03:27:32;;;;;;;110.97;34.83;;;;;;;5.14;100.00;102568.63;5035920;28;20069;-68
2022/01/29 03:29:57;;;;;;;118.65;41.28;;;;;;;5.24;100.00;102572.75;5016461;28;20033;-70
2022/01/29 03:32:22;;;;;;;101.53;30.50;;;;;;;5.05;100.00;102562.63;5018227;28;20075;-71
2022/01/29 03:34:48;;;;;;;115.63;35.65;;;;;;;5.06;100.00;102568.81;5017392;28;20124;-70
2022/01/29 03:37:13;;;;;;;100.15;30.95;;;;;;;5.14;100.00;102564.16;5021984;28;20021;-69
2022/01/29 03:39:41;;;;;;;126.53;41.15;;;;;;;5.18;100.00;102548.94;5033851;28;20060;-68
2022/01/29 03:42:09;;;;;;;87.18;26.85;;;;;;;5.09;100.00;102564.28;5017735;28;20041;-71
2022/01/29 03:44:34;;;;;;;111.57;36.08;;;;;;;5.35;100.00;102557.38;5017769;28;20037;-68
2022/01/29 03:46:59;;;;;;;116.03;35.83;;;;;;;5.28;100.00;102557.59;5022774;28;20057;-69
2022/01/29 03:49:25;;;;;;;123.20;42.22;;;;;;;5.24;100.00;102557.66;5018414;28;20061;-68
2022/01/29 03:51:50;;;;;;;119.80;44.70;;;;;;;5.33;100.00;102547.66;5030259;28;20032;-69
2022/01/29 03:54:15;;;;;;;127.88;44.85;;;;;;;5.32;100.00;102546.78;5027675;28;20021;-71
2022/01/29 03:56:41;;;;;;;113.70;37.83;;;;;;;5.13;100.00;102543.75;5018670;28;20541;-69
2022/01/29 03:59:06;;;;;;;96.28;28.35;;;;;;;5.23;100.00;102531.94;5017620;28;20399;-70
2022/01/29 04:01:31;;;;;;;119.25;38.13;;;;;;;5.21;100.00;102555.09;5000733;28;20055;-68
2022/01/29 04:03:57;;;;;;;136.60;42.70;;;;;;;5.32;100.00;102551.22;5001902;28;20064;-68
2022/01/29 04:06:23;;;;;;;110.18;33.88;;;;;;;5.21;100.00;102540.88;5017877;28;20076;-70
2022/01/29 04:08:48;;;;;;;145.48;47.63;;;;;;;5.48;100.00;102549.00;5000052;28;20128;-68
2022/01/29 04:11:14;;;;;;;161.25;56.55;;;;;;;5.52;100.00;102543.56;5016225;28;20368;-70
2022/01/29 04:13:43;;;;;;;114.78;33.60;;;;;;;5.28;100.00;102537.13;5000484;28;20038;-68
2022/01/29 04:16:09;;;;;;;119.18;34.08;;;;;;;5.31;100.00;102537.06;5019640;28;20355;-69
2022/01/29 04:18:35;;;;;;;99.68;28.67;;;;;;;5.40;100.00;102536.81;5013924;28;20060;-70
2022/01/29 04:21:01;;;;;;;163.32;46.20;;;;;;;5.41;100.00;102529.66;5018516;28;20133;-69
2022/01/29 04:23:26;;;;;;;152.18;45.63;;;;;;;5.51;100.00;102538.25;5017331;28;20025;-68
2022/01/29 04:25:53;;;;;;;116.28;31.13;;;;;;;5.40;100.00;102525.25;5019482;28;20544;-71
2022/01/29 04:28:25;;;;;;;150.63;43.83;;;;;;;5.50;100.00;102533.84;5031989;28;20521;-72
2022/01/29 04:30:57;;;;;;;140.90;36.83;;;;;;;5.51;100.00;102528.50;5022475;28;20037;-68
2022/01/29 04:35:47;;;;;;;106.57;29.98;;;;;;;5.55;100.00;102531.94;5023834;28;20448;-70
2022/01/29 04:38:13;;;;;;;151.73;46.35;;;;;;;5.58;100.00;102529.19;5019588;28;20029;-68
2022/01/29 04:40:38;;;;;;;150.35;45.75;;;;;;;5.62;100.00;102529.94;5023018;28;20466;-68
2022/01/29 04:43:04;;;;;;;130.13;41.22;;;;;;;5.52;100.00;102521.34;5018071;28;20128;-68
2022/01/29 04:45:29;;;;;;;136.82;36.83;;;;;;;5.58;100.00;102521.19;5022022;28;20037;-69
2022/01/29 04:47:55;;;;;;;118.45;34.03;;;;;;;5.47;100.00;102512.63;5019897;28;20077;-71
2022/01/29 04:50:20;;;;;;;120.53;34.15;;;;;;;5.64;100.00;102489.03;5025413;28;20081;-71
2022/01/29 04:52:45;;;;;;;105.40;29.92;;;;;;;5.54;100.00;102491.09;5019239;28;21648;-71
2022/01/29 04:55:11;;;;;;;135.85;40.25;;;;;;;5.56;100.00;102483.06;5023713;28;20108;-71
2022/01/29 04:57:37;;;;;;;135.55;38.63;;;;;;;5.67;100.00;102480.94;5018565;28;20156;-69
2022/01/29 05:00:12;;;;;;;106.05;28.08;;;;;;;5.55;100.00;102486.63;5038916;28;20065;-70
2022/01/29 05:02:38;;;;;;;133.18;37.80;;;;;;;5.50;100.00;102457.47;5018119;28;20029;-71
2022/01/29 05:05:04;;;;;;;137.15;40.90;;;;;;;5.69;100.00;102480.88;5020823;28;20090;-67
2022/01/29 05:07:30;;;;;;;110.75;32.58;;;;;;;5.60;100.00;102475.81;5019727;28;20041;-68
2022/01/29 05:09:55;;;;;;;118.20;37.25;;;;;;;5.66;100.00;102478.31;5004728;28;20124;-72
2022/01/29 05:12:26;;;;;;;129.85;35.17;;;;;;;5.81;100.00;102482.28;5035765;28;20462;-70
2022/01/29 05:15:08;;;;;;;134.60;39.15;;;;;;;5.69;100.00;102472.88;5017860;28;20036;-69
2022/01/29 05:28:29;;;;;;;95.25;29.15;;;;;;;5.84;100.00;102471.53;5024543;28;20045;-71
2022/01/29 05:30:54;;;;;;;108.40;32.33;;;;;;;5.88;100.00;102472.31;5018569;28;20504;-70
2022/01/29 05:33:20;;;;;;;121.75;36.85;;;;;;;5.89;100.00;102480.25;5021266;28;20464;-67
2022/01/29 05:35:45;;;;;;;124.85;36.55;;;;;;;5.88;100.00;102469.63;5016576;28;20029;-69
2022/01/29 05:38:10;;;;;;;123.63;39.63;;;;;;;6.01;100.00;102468.38;5019304;28;20313;-68
2022/01/29 05:40:36;;;;;;;84.68;25.33;;;;;;;5.86;100.00;102454.56;4999747;28;20045;-70
2022/01/29 05:43:01;;;;;;;114.93;32.75;;;;;;;5.89;100.00;102469.59;5019746;28;20586;-71
2022/01/29 05:45:26;;;;;;;126.85;44.50;;;;;;;6.08;100.00;102451.25;5017527;28;20115;-68
2022/01/29 05:47:52;;;;;;;118.70;36.38;;;;;;;6.11;100.00;102464.47;5022260;28;20032;-69
2022/01/29 05:50:17;;;;;;;120.03;33.85;;;;;;;6.10;100.00;102452.03;5033682;28;20156;-69
2022/01/29 05:52:42;;;;;;;116.45;36.70;;;;;;;6.11;100.00;102456.47;5019108;28;20120;-69
2022/01/29 05:55:08;;;;;;;132.52;38.25;;;;;;;6.12;100.00;102442.19;5020217;28;20072;-68
2022/01/29 05:57:33;;;;;;;76.25;24.38;;;;;;;6.27;100.00;102442.63;5020600;28;20068;-71
2022/01/29 05:59:58;;;;;;;111.35;34.42;;;;;;;6.14;100.00;102445.69;5020387;28;20029;-70
2022/01/29 06:02:24;;;;;;;127.53;41.65;;;;;;;6.35;100.00;102426.34;5021631;28;20044;-69
2022/01/29 06:04:49;;;;;;;133.18;43.95;;;;;;;6.26;100.00;102449.75;5017561;28;20133;-67
2022/01/29 06:07:14;;;;;;;108.13;31.08;;;;;;;6.26;100.00;102444.41;5017201;28;20115;-71
2022/01/29 06:09:40;;;;;;;92.88;31.65;;;;;;;6.20;100.00;102439.31;5019962;28;20746;-71
2022/01/29 06:12:05;;;;;;;112.75;34.53;;;;;;;6.35;100.00;102447.69;5017347;28;20475;-71
2022/01/29 06:14:30;;;;;;;97.57;31.17;;;;;;;6.18;100.00;102427.81;5034251;28;20045;-70
2022/01/29 06:16:56;;;;;;;117.20;37.78;;;;;;;6.29;100.00;102428.31;5021351;28;20385;-70
2022/01/29 06:19:21;;;;;;;135.70;43.17;;;;;;;6.20;100.00;102412.63;5017647;28;20048;-69
2022/01/29 06:21:47;;;;;;;117.80;37.08;;;;;;;6.29;100.00;102419.44;5035957;28;20455;-70
2022/01/29 06:24:12;;;;;;;143.07;46.22;;;;;;;6.34;100.00;102428.16;5018853;28;20032;-69
2022/01/29 06:26:38;;;;;;;106.15;29.85;;;;;;;6.33;100.00;102428.19;5021365;28;20055;-70
2022/01/29 06:29:04;;;;;;;105.53;35.63;;;;;;;6.32;100.00;102411.34;5016892;28;20048;-69
2022/01/29 06:31:29;;;;;;;108.10;33.97;;;;;;;6.36;100.00;102418.28;5020114;28;20159;-69
2022/01/29 06:33:55;;;;;;;108.80;34.45;;;;;;;6.43;100.00;102410.97;5013445;28;20458;-70
2022/01/29 06:36:20;;;;;;;106.10;32.88;;;;;;;6.44;100.00;102421.56;5035937;28;20469;-70
2022/01/29 06:38:45;;;;;;;125.70;44.17;;;;;;;6.51;100.00;102416.00;5034605;28;20777;-68
2022/01/29 06:41:11;;;;;;;104.47;33.47;;;;;;;6.41;100.00;102404.81;5018102;28;20025;-71
2022/01/29 06:43:36;;;;;;;115.75;37.92;;;;;;;6.45;100.00;102417.13;5018006;28;20033;-69
2022/01/29 06:46:01;;;;;;;112.63;36.83;;;;;;;6.44;100.00;102410.88;5020383;28;20059;-70
2022/01/29 06:48:27;;;;;;;114.50;38.33;;;;;;;6.47;100.00;102404.59;5015208;28;20127;-71
2022/01/29 06:50:52;;;;;;;110.45;36.13;;;;;;;6.37;100.00;102393.34;5019201;28;20026;-71
2022/01/29 06:53:17;;;;;;;97.20;30.33;;;;;;;6.46;100.00;102394.84;5031526;28;20369;-71
2022/01/29 06:55:43;;;;;;;137.73;44.55;;;;;;;6.45;100.00;102393.09;5019316;28;20045;-69
2022/01/29 06:58:08;;;;;;;102.70;32.45;;;;;;;6.55;100.00;102415.84;5017284;28;20087;-71
2022/01/29 07:00:33;;;;;;;110.72;39.90;;;;;;;6.63;100.00;102406.69;5019463;28;20029;-71
2022/01/29 07:02:58;;;;;;;117.38;39.78;;;;;;;6.56;100.00;102385.56;5017787;28;20037;-68
2022/01/29 07:05:24;;;;;;;103.10;33.40;;;;;;;6.59;100.00;102389.94;5004854;28;20148;-70
2022/01/29 07:07:49;;;;;;;103.80;34.42;;;;;;;6.57;100.00;102407.81;5013666;28;20025;-69
2022/01/29 07:10:16;;;;;;;109.63;36.40;;;;;;;6.59;100.00;102393.47;5020504;28;20032;-69
2022/01/29 07:12:41;;;;;;;104.05;37.05;;;;;;;6.72;100.00;102387.69;5016095;28;20037;-70
2022/01/29 07:15:08;;;;;;;90.80;32.45;;;;;;;6.70;100.00;102393.06;5004411;28;20410;-71
2022/01/29 07:17:34;;;;;;;94.22;33.40;;;;;;;6.67;100.00;102379.84;4999403;28;20749;-69
2022/01/29 07:19:59;;;;;;;102.63;36.10;;;;;;;6.72;100.00;102383.22;5023413;28;20029;-71
2022/01/29 07:22:24;;;;;;;70.13;28.08;;;;;;;6.64;100.00;102379.09;5013133;28;20057;-71
2022/01/29 07:24:50;;;;;;;104.68;40.80;;;;;;;6.90;100.00;102368.31;5009804;28;20580;-70
2022/01/29 07:27:15;;;;;;;101.50;33.65;;;;;;;6.84;100.00;102387.22;5017260;28;20053;-69
2022/01/29 07:29:41;;;;;;;74.25;24.95;;;;;;;6.74;100.00;102376.00;5022702;28;20053;-70
2022/01/29 07:32:07;;;;;;;96.00;33.65;;;;;;;6.87;100.00;102383.59;5017035;28;20033;-69
2022/01/29 07:34:32;;;;;;;84.43;30.20;;;;;;;6.86;100.00;102385.38;5023785;28;20029;-69
2022/01/29 07:36:58;;;;;;;89.80;32.88;;;;;;;6.90;100.00;102391.44;5019081;28;20079;-69
2022/01/29 07:39:24;;;;;;;92.55;31.42;;;;;;;6.95;100.00;102386.81;5004183;28;20036;-68
2022/01/29 07:41:50;;;;;;;106.20;39.25;;;;;;;6.95;100.00;102375.28;5035341;28;20044;-71
2022/01/29 07:44:15;;;;;;;97.45;29.85;;;;;;;6.96;100.00;102372.53;5019940;28;20029;-69
2022/01/29 07:46:41;;;;;;;95.72;35.92;;;;;;;7.01;100.00;102367.91;5036370;28;20021;-69
2022/01/29 07:49:06;;;;;;;87.10;32.13;;;;;;;6.97;100.00;102374.28;5037978;28;20037;-70
2022/01/29 07:51:32;;;;;;;91.20;31.45;;;;;;;7.01;100.00;102362.56;5019339;28;20028;-70
2022/01/29 07:53:57;;;;;;;90.78;34.13;;;;;;;7.11;100.00;102359.53;5018535;28;20926;-69
2022/01/29 07:56:23;;;;;;;86.80;32.58;;;;;;;7.10;100.00;102365.81;5018520;28;20088;-70
2022/01/29 07:58:49;;;;;;;90.20;31.80;;;;;;;7.09;100.00;102364.06;5020946;28;20029;-72
2022/01/29 08:01:14;;;;;;;91.05;33.15;;;;;;;7.20;100.00;102367.16;4999017;28;20041;-70
2022/01/29 08:03:41;;;;;;;95.60;34.72;;;;;;;7.11;100.00;102343.50;5017357;28;20072;-69
2022/01/29 08:06:06;;;;;;;84.72;30.63;;;;;;;7.13;100.00;102363.03;5019410;28;20044;-70
2022/01/29 08:08:32;;;;;;;104.03;41.30;;;;;;;7.08;100.00;102339.13;5024458;28;20038;-70
2022/01/29 08:10:57;;;;;;;97.10;35.72;;;;;;;7.24;100.00;102341.22;5035814;28;20052;-68
2022/01/29 08:13:22;;;;;;;77.40;26.27;;;;;;;7.15;100.00;102342.47;5036480;28;20361;-70
2022/01/29 08:15:48;;;;;;;79.43;28.55;;;;;;;7.15;100.00;102337.97;5018905;28;20471;-71
2022/01/29 08:18:13;;;;;;;103.82;38.58;;;;;;;7.26;100.00;102334.03;5035142;28;20635;-70
2022/01/29 08:20:39;;;;;;;94.32;32.42;;;;;;;7.16;100.00;102315.69;5021282;28;20029;-71
2022/01/29 08:23:08;;;;;;;75.60;25.55;;;;;;;7.24;100.00;102338.56;5036653;28;20483;-71
2022/01/29 08:25:34;;;;;;;106.72;36.50;;;;;;;7.33;100.00;102324.81;5018557;28;20032;-70
2022/01/29 08:28:00;;;;;;;92.20;31.70;;;;;;;7.44;100.00;102340.41;5022427;28;20088;-70
2022/01/29 08:30:25;;;;;;;104.70;36.17;;;;;;;7.26;100.00;102324.19;5016916;28;20425;-70
2022/01/29 08:32:50;;;;;;;113.85;41.10;;;;;;;7.47;100.00;102334.94;5022463;28;20079;-71
2022/01/29 08:35:15;;;;;;;102.75;38.05;;;;;;;7.39;100.00;102332.59;5037874;28;20072;-71
2022/01/29 08:37:41;;;;;;;76.65;26.35;;;;;;;7.32;100.00;102307.91;5021247;28;20455;-70
2022/01/29 08:40:08;;;;;;;71.60;24.48;;;;;;;7.33;100.00;102320.34;5005159;28;20697;-72
2022/01/29 08:42:33;;;;;;;89.78;35.53;;;;;;;7.38;100.00;102321.97;5003104;28;20364;-69
2022/01/29 08:45:00;;;;;;;99.13;37.58;;;;;;;7.34;100.00;102321.22;5022199;28;20676;-69
2022/01/29 08:47:25;;;;;;;93.63;33.80;;;;;;;7.31;100.00;102315.97;5022466;28;20407;-72
2022/01/29 08:49:51;;;;;;;103.00;39.88;;;;;;;7.35;100.00;102310.47;5036746;28;20029;-71
2022/01/29 08:52:16;;;;;;;92.15;33.65;;;;;;;7.45;100.00;102312.75;5018789;28;20075;-68
2022/01/29 08:54:41;;;;;;;100.72;36.42;;;;;;;7.50;100.00;102308.09;5020567;28;20069;-70
2022/01/29 08:57:06;;;;;;;92.00;37.50;;;;;;;7.54;100.00;102303.50;5035279;28;20120;-69
2022/01/29 08:59:32;;;;;;;89.20;32.92;;;;;;;7.50;100.00;102297.41;5022772;28;20033;-71
2022/01/29 09:01:57;;;;;;;98.13;38.13;;;;;;;7.57;100.00;102285.53;5015602;28;20075;-70
2022/01/29 09:04:22;;;;;;;85.82;33.78;;;;;;;7.57;100.00;102298.88;5023549;28;20051;-69
2022/01/29 09:06:48;;;;;;;71.40;28.48;;;;;;;7.55;100.00;102287.41;5001646;28;20017;-71
2022/01/29 09:09:18;;;;;;;94.30;36.67;;;;;;;7.61;100.00;102279.13;5022866;28;20078;-72
2022/01/29 09:11:43;;;;;;;91.50;37.53;;;;;;;7.68;100.00;102287.75;5021046;28;20076;-70
2022/01/29 09:14:08;;;;;;;85.90;34.75;;;;;;;7.67;100.00;102277.13;5035793;28;20030;-70
2022/01/29 09:16:34;;;;;;;89.07;42.60;;;;;;;7.87;100.00;102284.28;5036626;28;20148;-68
2022/01/29 09:18:59;;;;;;;84.22;38.33;;;;;;;7.73;100.00;102279.53;5038632;28;20508;-68
2022/01/29 09:21:25;;;;;;;71.40;30.95;;;;;;;7.82;100.00;102273.78;5035735;28;20030;-74
2022/01/29 09:23:55;;;;;;;69.43;27.00;;;;;;;7.77;100.00;102267.75;5017554;28;20033;-70
2022/01/29 09:26:21;;;;;;;80.72;39.42;;;;;;;7.87;100.00;102276.25;5035693;28;20037;-68
2022/01/29 09:28:46;;;;;;;77.97;35.60;;;;;;;7.85;100.00;102272.78;5027804;28;20469;-72
2022/01/29 09:31:11;;;;;;;73.10;30.25;;;;;;;7.92;100.00;102276.94;5022022;28;20503;-71
2022/01/29 09:33:36;;;;;;;68.20;30.42;;;;;;;7.96;100.00;102271.38;5020668;28;20281;-70
2022/01/29 09:36:02;;;;;;;67.85;30.52;;;;;;;8.06;100.00;102279.00;5036914;28;20037;-71
2022/01/29 09:38:27;;;;;;;72.00;36.28;;;;;;;8.18;100.00;102288.28;5021100;28;20032;-69
2022/01/29 09:40:54;;;;;;;61.03;24.45;;;;;;;8.15;100.00;102291.09;5018061;28;20377;-69
2022/01/29 09:43:21;;;;;;;65.60;32.38;;;;;;;8.14;100.00;102279.53;5021132;28;20160;-69
2022/01/29 09:45:50;;;;;;;59.50;31.30;;;;;;;8.25;100.00;102293.28;5021895;28;20033;-71
2022/01/29 09:48:21;;;;;;;54.50;25.65;;;;;;;8.24;100.00;102291.53;5017694;28;20034;-69
2022/01/29 09:50:46;;;;;;;57.92;33.35;;;;;;;8.41;100.00;102287.25;5019228;28;20029;-67
2022/01/29 09:53:11;;;;;;;51.17;28.52;;;;;;;8.36;100.00;102276.75;5016341;28;20025;-71
2022/01/29 09:55:37;;;;;;;51.17;26.67;;;;;;;8.48;100.00;102287.84;5018275;28;20042;-70
2022/01/29 09:58:02;;;;;;;54.20;29.20;;;;;;;8.54;100.00;102292.94;5020413;28;20033;-69
2022/01/29 10:00:28;;;;;;;47.08;25.27;;;;;;;8.55;100.00;102286.66;5018523;28;20075;-68
2022/01/29 10:03:11;;;;;;;47.35;24.98;;;;;;;8.66;100.00;102292.38;5015426;28;20029;-70
2022/01/29 10:05:37;;;;;;;48.30;32.67;;;;;;;8.72;100.00;102296.59;5017070;28;20025;-69
2022/01/29 10:08:05;;;;;;;51.03;26.98;;;;;;;8.73;100.00;102297.44;5034414;28;20561;-69
2022/01/29 10:10:38;;;;;;;43.97;25.98;;;;;;;8.69;100.00;102281.50;5018378;28;20063;-70
2022/01/29 10:13:38;;;;;;;41.40;24.38;;;;;;;8.85;100.00;102278.97;5035531;28;20033;-70
2022/01/29 10:16:08;;;;;;;40.90;25.40;;;;;;;8.80;100.00;102264.09;5016992;28;20032;-69
2022/01/29 10:18:35;;;;;;;47.70;25.00;;;;;;;8.85;100.00;102268.28;5015855;28;20538;-71
2022/01/29 10:21:15;;;;;;;41.08;22.25;;;;;;;8.90;100.00;102272.53;5017577;28;20480;-70
2022/01/29 10:23:42;;;;;;;37.83;18.50;;;;;;;8.87;100.00;102270.00;5016087;28;20471;-71
2022/01/29 10:26:10;;;;;;;33.88;19.38;;;;;;;8.87;100.00;102281.59;5018162;28;20044;-71
2022/01/29 10:28:35;;;;;;;32.75;18.08;;;;;;;8.84;100.00;102245.09;4996909;28;20026;-70
2022/01/29 10:31:06;;;;;;;33.67;16.48;;;;;;;8.83;100.00;102246.03;5012343;28;20040;-75
2022/01/29 10:33:36;;;;;;;34.67;18.58;;;;;;;9.10;100.00;102240.28;5026593;28;20527;-75
2022/01/29 10:36:10;;;;;;;36.55;19.33;;;;;;;8.91;100.00;102218.03;5016343;28;20048;-72
2022/01/29 10:38:41;;;;;;;32.67;17.95;;;;;;;9.04;100.00;102224.50;5026092;28;20774;-71
2022/01/29 10:41:21;;;;;;;20.95;12.38;;;;;;;9.27;100.00;102222.53;5008669;28;20414;-70
2022/01/29 10:44:14;;;;;;;27.38;15.63;;;;;;;9.24;100.00;102225.34;5011672;28;20029;-70
2022/01/29 10:46:57;;;;;;;28.60;17.50;;;;;;;9.42;100.00;102232.47;5012623;28;20133;-72
2022/01/29 10:49:34;;;;;;;21.67;12.70;;;;;;;9.48;100.00;102230.41;5028389;28;20021;-72
2022/01/29 10:52:06;;;;;;;17.30;11.63;;;;;;;9.50;100.00;102226.69;5013532;28;20116;-71
2022/01/29 10:54:36;;;;;;;22.60;14.23;;;;;;;9.50;100.00;102207.94;5010855;28;20037;-69
2022/01/29 10:57:09;;;;;;;18.58;11.02;;;;;;;9.51;100.00;102214.19;5011545;28;20754;-70
2022/01/29 10:59:39;;;;;;;16.65;10.55;;;;;;;9.60;100.00;102225.28;5013139;28;20043;-70
2022/01/29 11:02:06;;;;;;;15.13;9.80;;;;;;;9.65;100.00;102234.91;5028877;28;20071;-70
2022/01/29 11:04:33;;;;;;;10.80;7.53;;;;;;;9.49;100.00;102218.75;4997507;28;20140;-70
2022/01/29 11:07:02;;;;;;;19.73;12.05;;;;;;;9.56;100.00;102214.78;5040254;28;20032;-69
2022/01/29 11:09:28;;;;;;;18.65;10.70;;;;;;;9.93;100.00;102214.69;5015230;28;20025;-70
2022/01/29 11:11:57;;;;;;;16.52;9.80;;;;;;;9.67;100.00;102201.69;5011116;28;20114;-70
2022/01/29 11:14:22;;;;;;;11.85;8.20;;;;;;;9.80;100.00;102196.56;4996540;28;20017;-69
2022/01/29 11:16:47;;;;;;;16.23;11.73;;;;;;;9.90;100.00;102189.75;5013804;28;20076;-73